Observations for Trim Market St
| Time | AQI | Temp °C | Hum % | Pres Pa | CO μg/m³ | H₂S μg/m³ | NO μg/m³ | NO₂ μg/m³ | O₃ μg/m³ | SO₂ μg/m³ | PM1 μg/m³ | PM2.5 μg/m³ | PM10 μg/m³ |
|---|---|---|---|---|---|---|---|---|---|---|---|---|---|
| Monday 24 August 2026 | |||||||||||||
| 10:14 | 1 | 30.1 | 44 | 65,121 | 1.04 | 0 | 2.14 | 21.3 | 28.23 | 0 | 1.43 | 4.78 | 5.19 |
| 10:13 | 1 | 29.8 | 45 | 64,915 | 1.05 | 0 | 2.18 | 20.55 | 25.79 | 0 | 1.43 | 4.75 | 5.2 |
| 10:11 | 1 | 29.4 | 46 | 64,388 | 1.07 | 0 | 2.32 | 22.49 | 24.81 | 0 | 2.85 | 5.73 | 6.76 |
| 10:10 | 1 | 29.1 | 47 | 64,037 | 1.13 | 0 | 2.34 | 27.83 | 25.2 | 0 | 2.85 | 5.17 | 6.76 |
| 10:09 | 1 | 28.9 | 48 | 63,505 | 1.15 | 0 | 2.36 | 21.91 | 20.35 | 0 | 2.14 | 5.65 | 8.29 |
| 10:03 | 1 | 27 | 52 | 58,818 | 1.08 | 0 | 2.56 | 22.87 | 29.89 | 0 | 3.56 | 6.44 | 9.72 |
| 10:02 | 1 | 26.7 | 53 | 57,630 | 1.07 | 0 | 2.52 | 23.11 | 33.14 | 0 | 3.56 | 6.41 | 9.71 |
| 10:01 | 1 | 26.3 | 54 | 57,029 | 1.17 | 0 | 2.57 | 31 | 34.15 | 0 | 4.99 | 7.39 | 10.42 |
| 09:58 | 1 | 25.4 | 56 | 56,238 | 0.82 | 0 | 2.66 | 19.76 | 34.45 | 0 | 6.41 | 9.81 | 14.65 |
| 09:57 | 1 | 25.1 | 56 | 56,476 | 0.79 | 0 | 3.05 | 21.86 | 30.69 | 0 | 4.28 | 7.24 | 12.49 |
| 09:56 | 1 | 24.7 | 57 | 56,802 | 0.75 | 0 | 3.13 | 17.49 | 34.69 | 0 | 4.28 | 6.69 | 9.64 |
| 09:55 | 1 | 24.4 | 58 | 57,016 | 0.8 | 0 | 3.21 | 23.79 | 43.08 | 0 | 5.7 | 8.68 | 13.83 |
| 09:54 | 1 | 24.1 | 58 | 57,247 | 0.89 | 0 | 3.11 | 33.28 | 38.46 | 0 | 5.7 | 8.64 | 13.1 |
| 09:52 | 1 | 23.4 | 60 | 57,475 | 0.72 | 0 | 2.92 | 23.34 | 35.88 | 0 | 7.13 | 10.56 | 15.8 |
| 09:47 | 1 | 22.1 | 60 | 57,398 | 0.68 | 0 | 2.57 | 14.99 | 38.42 | 0 | 6.41 | 10.5 | 14.36 |
| 09:46 | 1 | 21.9 | 61 | 57,380 | 0.58 | 0 | 2.59 | 16.8 | 37.24 | 0 | 8.55 | 12.99 | 18.45 |
| 09:42 | 1 | 21.4 | 61 | 57,266 | 0.6 | 0 | 2.71 | 16.2 | 30.06 | 0 | 5.7 | 8.94 | 13.63 |
| 09:40 | 1 | 21.2 | 62 | 57,143 | 0.59 | 0 | 2.75 | 13.97 | 30.51 | 0 | 4.99 | 8.9 | 15.62 |
| 09:39 | 1 | 21.1 | 62 | 57,055 | 0.62 | 0 | 2.9 | 15.17 | 28.15 | 0 | 5.7 | 9.37 | 12.9 |
| 09:32 | 1 | 20.1 | 64 | 56,326 | 0.47 | 0 | 3.46 | 15.72 | 36.31 | 0 | 2.85 | 5.3 | 7.53 |